createdAt,value
2017-06-23T00:01:18.583Z,9.70
2017-06-23T00:03:46.823Z,8.17
2017-06-23T00:06:14.312Z,8.47
2017-06-23T00:08:42.553Z,7.77
2017-06-23T00:11:10.050Z,8.10
2017-06-23T00:13:38.304Z,7.30
2017-06-23T00:16:05.781Z,7.37
2017-06-23T00:18:34.041Z,6.83
2017-06-23T00:21:01.516Z,7.60
2017-06-23T00:23:29.794Z,8.07
2017-06-23T00:25:58.047Z,8.10
2017-06-23T00:28:25.548Z,8.40
2017-06-23T00:30:53.061Z,8.00
2017-06-23T00:33:20.536Z,7.67
2017-06-23T00:35:48.032Z,8.73
2017-06-23T00:38:15.520Z,8.37
2017-06-23T00:40:42.996Z,8.17
2017-06-23T00:43:11.304Z,7.90
2017-06-23T00:45:39.633Z,8.23
2017-06-23T00:48:07.096Z,7.70
2017-06-23T00:50:34.600Z,8.70
2017-06-23T00:53:02.833Z,8.33
2017-06-23T00:55:30.333Z,7.57
2017-06-23T00:57:58.568Z,7.77
2017-06-23T01:00:26.055Z,7.73
2017-06-23T01:02:53.554Z,8.00
2017-06-23T01:05:21.033Z,7.60
2017-06-23T01:07:48.517Z,6.93
2017-06-23T01:10:16.001Z,7.63
2017-06-23T01:12:44.252Z,7.87
2017-06-23T01:15:11.739Z,7.83
2017-06-23T01:17:39.974Z,7.30
2017-06-23T01:20:07.474Z,6.80
2017-06-23T01:22:35.712Z,7.23
2017-06-23T01:25:03.213Z,8.00
2017-06-23T01:27:31.449Z,7.53
2017-06-23T01:29:58.925Z,6.47
2017-06-23T01:32:26.424Z,6.90
2017-06-23T01:34:53.924Z,7.17
2017-06-23T01:37:21.416Z,6.83
2017-06-23T01:39:49.659Z,6.93
2017-06-23T01:42:17.180Z,6.50
2017-06-23T01:44:44.652Z,6.03
2017-06-23T01:47:12.144Z,7.50
2017-06-23T01:49:39.645Z,6.93
2017-06-23T01:52:07.121Z,6.50
2017-06-23T01:54:34.621Z,6.47
2017-06-23T01:57:02.089Z,6.27
2017-06-23T01:59:30.351Z,7.10
2017-06-23T02:01:57.813Z,6.43
2017-06-23T02:04:25.307Z,7.97
2017-06-23T02:06:52.791Z,6.50
2017-06-23T02:09:20.272Z,6.47
2017-06-23T02:11:49.238Z,6.30
2017-06-23T02:14:16.722Z,7.03
2017-06-23T02:16:44.205Z,6.93
2017-06-23T02:19:12.502Z,7.10
2017-06-23T02:21:39.969Z,8.00
2017-06-23T02:24:07.466Z,7.40
2017-06-23T02:26:34.941Z,7.73
2017-06-23T02:29:02.445Z,7.17
2017-06-23T02:31:29.945Z,8.73
2017-06-23T02:33:57.449Z,7.30
2017-06-23T02:36:24.946Z,8.80
2017-06-23T02:38:53.188Z,6.90
2017-06-23T02:41:20.686Z,8.10
2017-06-23T02:43:48.930Z,9.10
2017-06-23T02:46:16.424Z,7.90
2017-06-23T02:48:43.897Z,7.87
2017-06-23T02:51:11.371Z,8.87
2017-06-23T02:53:38.860Z,8.17
2017-06-23T02:56:06.333Z,7.97
2017-06-23T02:58:33.804Z,8.27
2017-06-23T03:01:02.085Z,9.00
2017-06-23T03:03:30.321Z,9.70
2017-06-23T03:05:57.828Z,9.17
2017-06-23T03:08:25.329Z,9.53
2017-06-23T03:10:52.812Z,9.20
2017-06-23T03:13:20.314Z,9.13
2017-06-23T03:15:47.808Z,9.83
2017-06-23T03:18:15.280Z,9.80
2017-06-23T03:20:43.593Z,9.40
2017-06-23T03:23:11.844Z,9.30
2017-06-23T03:25:39.321Z,9.57
2017-06-23T03:28:07.589Z,9.10
2017-06-23T03:30:35.828Z,9.50
2017-06-23T03:33:03.321Z,9.87
2017-06-23T03:35:31.573Z,10.07
2017-06-23T03:37:59.064Z,10.00
2017-06-23T03:40:27.323Z,9.23
2017-06-23T03:42:54.805Z,10.90
2017-06-23T03:45:22.320Z,11.20
2017-06-23T03:47:49.788Z,10.67
2017-06-23T03:50:17.297Z,10.13
2017-06-23T03:52:44.794Z,9.30
2017-06-23T03:55:12.294Z,9.60
2017-06-23T03:57:40.545Z,10.43
2017-06-23T04:00:08.052Z,10.87
2017-06-23T04:02:35.535Z,10.87
2017-06-23T04:05:03.022Z,10.93
2017-06-23T04:07:30.516Z,12.03
2017-06-23T04:09:57.999Z,11.17
2017-06-23T04:12:25.506Z,10.90
2017-06-23T04:14:53.753Z,11.90
2017-06-23T04:17:21.237Z,10.63
2017-06-23T04:19:49.511Z,12.17
2017-06-23T04:22:16.989Z,11.83
2017-06-23T04:24:45.253Z,11.80
2017-06-23T04:27:13.625Z,12.17
2017-06-23T04:42:30.729Z,13.30
2017-06-23T04:44:58.197Z,12.07
2017-06-23T04:47:26.461Z,12.10
2017-06-23T04:49:53.933Z,13.33
2017-06-23T04:52:22.194Z,12.00
2017-06-23T04:54:50.444Z,13.23
2017-06-23T04:57:17.924Z,12.50
2017-06-23T04:59:45.430Z,12.43
2017-06-23T05:02:12.982Z,12.50
2017-06-23T05:04:40.740Z,13.70
2017-06-23T05:07:08.298Z,11.37
2017-06-23T05:09:35.804Z,12.57
2017-06-23T05:12:03.272Z,12.90
2017-06-23T05:14:30.751Z,12.93
2017-06-23T05:16:59.028Z,12.30
2017-06-23T05:19:27.280Z,12.33
2017-06-23T05:21:54.789Z,12.80
2017-06-23T05:24:22.301Z,12.13
2017-06-23T05:26:49.804Z,12.10
2017-06-23T05:29:17.292Z,11.20
2017-06-23T05:31:44.769Z,12.03
2017-06-23T05:34:12.268Z,11.03
2017-06-23T05:36:40.508Z,10.80
2017-06-23T05:39:07.988Z,12.17
2017-06-23T05:41:36.249Z,11.33
2017-06-23T05:44:03.729Z,11.00
2017-06-23T05:46:31.997Z,11.77
2017-06-23T05:48:59.484Z,11.83
2017-06-23T05:51:27.063Z,11.93
2017-06-23T05:53:54.551Z,12.23
2017-06-23T05:56:22.044Z,11.80
2017-06-23T05:58:50.308Z,12.37
2017-06-23T06:01:17.784Z,11.20
2017-06-23T06:03:46.052Z,11.10
2017-06-23T06:06:14.299Z,11.23
2017-06-23T06:08:41.818Z,11.73
2017-06-23T06:11:09.308Z,12.37
2017-06-23T06:13:36.797Z,11.50
2017-06-23T06:16:04.294Z,10.77
2017-06-23T06:18:31.779Z,11.63
2017-06-23T06:20:59.276Z,11.23
2017-06-23T06:23:26.768Z,11.13
2017-06-23T06:25:54.248Z,10.80
2017-06-23T06:28:21.772Z,11.97
2017-06-23T06:30:50.017Z,11.77
2017-06-23T06:33:17.529Z,12.07
2017-06-23T06:35:45.087Z,11.17
2017-06-23T06:38:12.584Z,10.40
2017-06-23T06:40:40.095Z,10.20
2017-06-23T06:43:08.357Z,11.03
2017-06-23T06:45:36.622Z,11.03
2017-06-23T06:48:04.172Z,11.33
2017-06-23T06:50:31.668Z,12.50
2017-06-23T06:52:59.172Z,11.47
2017-06-23T06:55:26.792Z,10.80
2017-06-23T06:57:54.370Z,11.33
2017-06-23T07:00:21.849Z,11.30
2017-06-23T07:02:49.343Z,12.27
2017-06-23T07:05:17.609Z,10.80
2017-06-23T07:07:45.087Z,10.73
2017-06-23T07:10:13.356Z,10.80
2017-06-23T07:12:41.632Z,13.33
2017-06-23T07:15:09.148Z,12.73
2017-06-23T07:17:36.637Z,12.13
2017-06-23T07:20:04.112Z,11.03
2017-06-23T07:22:32.395Z,11.83
2017-06-23T07:25:00.639Z,12.17
2017-06-23T07:27:28.158Z,11.87
2017-06-23T07:29:55.624Z,11.53
2017-06-23T07:32:23.138Z,13.70
2017-06-23T07:34:51.412Z,13.90
2017-06-23T07:37:19.684Z,12.90
2017-06-23T07:39:47.188Z,13.20
2017-06-23T07:42:14.668Z,11.40
2017-06-23T07:44:42.187Z,13.33
2017-06-23T07:47:09.677Z,13.20
2017-06-23T07:49:37.224Z,12.57
2017-06-23T07:52:04.697Z,13.57
2017-06-23T07:54:32.232Z,14.47
2017-06-23T07:56:59.729Z,15.00
2017-06-23T07:59:27.227Z,14.03
2017-06-23T08:01:55.471Z,13.73
2017-06-23T08:04:22.963Z,14.83
2017-06-23T08:06:51.206Z,13.70
2017-06-23T08:09:18.714Z,14.60
2017-06-23T08:11:46.191Z,14.30
2017-06-23T08:14:13.667Z,15.30
2017-06-23T08:16:41.164Z,15.03
2017-06-23T08:19:09.416Z,14.80
2017-06-23T08:21:36.930Z,14.33
2017-06-23T08:24:04.433Z,15.40
2017-06-23T08:26:31.932Z,14.87
2017-06-23T08:29:00.204Z,15.40
2017-06-23T08:31:28.443Z,15.70
2017-06-23T08:33:55.924Z,14.50
2017-06-23T08:36:23.419Z,13.90
2017-06-23T08:38:50.903Z,15.07
2017-06-23T08:41:18.415Z,15.40
2017-06-23T08:43:46.656Z,14.20
2017-06-23T08:46:14.144Z,14.90
2017-06-23T08:48:42.406Z,15.37
2017-06-23T08:51:09.884Z,14.73
2017-06-23T08:53:38.148Z,16.10
2017-06-23T08:56:06.425Z,15.40
2017-06-23T08:58:33.902Z,15.33
2017-06-23T09:01:01.402Z,14.30
2017-06-23T09:03:28.904Z,15.50
2017-06-23T09:05:57.224Z,15.60
2017-06-23T09:08:24.716Z,15.57
2017-06-23T09:10:52.261Z,14.53
2017-06-23T09:13:19.735Z,16.00
2017-06-23T09:15:47.276Z,14.93
2017-06-23T09:18:14.780Z,15.50
2017-06-23T09:20:43.061Z,16.10
2017-06-23T09:23:11.316Z,15.80
2017-06-23T09:25:38.808Z,15.53
2017-06-23T09:28:06.297Z,14.77
2017-06-23T09:30:33.804Z,15.57
2017-06-23T09:33:02.133Z,16.50
2017-06-23T09:35:29.609Z,14.03
2017-06-23T09:37:57.112Z,15.70
2017-06-23T09:40:24.596Z,14.60
2017-06-23T09:42:52.154Z,15.40
2017-06-23T09:45:19.645Z,15.30
2017-06-23T09:47:47.172Z,15.40
2017-06-23T09:50:14.648Z,14.27
2017-06-23T09:52:42.189Z,15.67
2017-06-23T09:55:09.693Z,15.73
2017-06-23T09:57:37.207Z,15.30
2017-06-23T10:00:04.681Z,16.87
2017-06-23T10:02:32.179Z,13.73
2017-06-23T10:05:00.442Z,14.20
2017-06-23T10:07:27.921Z,14.23
2017-06-23T10:09:56.188Z,13.73
2017-06-23T10:12:23.670Z,14.50
2017-06-23T10:14:51.165Z,14.50
2017-06-23T10:17:18.687Z,14.70
2017-06-23T10:19:46.170Z,14.67
2017-06-23T10:22:13.685Z,13.30
2017-06-23T10:24:41.940Z,14.20
2017-06-23T10:27:09.421Z,13.23
2017-06-23T10:29:37.704Z,14.70
2017-06-23T10:32:05.961Z,13.10
2017-06-23T10:34:33.480Z,14.13
2017-06-23T10:37:00.966Z,14.10
2017-06-23T10:39:28.461Z,14.30
2017-06-23T10:41:56.717Z,13.87
2017-06-23T10:44:24.199Z,13.90
2017-06-23T10:46:52.485Z,15.70
2017-06-23T10:49:19.961Z,14.20
2017-06-23T10:51:47.461Z,14.40
2017-06-23T10:54:14.960Z,12.90
2017-06-23T10:56:42.444Z,12.40
2017-06-23T10:59:09.945Z,13.20
2017-06-23T11:01:37.456Z,12.93
2017-06-23T11:04:04.947Z,13.93
2017-06-23T11:06:32.441Z,13.50
2017-06-23T11:09:00.685Z,12.57
2017-06-23T11:11:28.188Z,14.53
2017-06-23T11:13:55.664Z,13.80
2017-06-23T11:16:23.177Z,14.47
2017-06-23T11:18:51.425Z,14.03
2017-06-23T11:21:18.904Z,13.40
2017-06-23T11:23:46.414Z,13.13
2017-06-23T11:26:13.893Z,14.07
2017-06-23T11:28:41.407Z,13.87
2017-06-23T11:31:08.896Z,12.07
2017-06-23T11:33:36.448Z,12.10
2017-06-23T11:36:03.928Z,13.00
2017-06-23T11:38:31.406Z,13.50
2017-06-23T11:40:58.916Z,12.70
2017-06-23T11:43:26.408Z,13.13
2017-06-23T11:45:53.901Z,13.00
2017-06-23T11:48:22.173Z,13.13
2017-06-23T11:50:50.413Z,13.23
2017-06-23T11:53:17.920Z,12.10
2017-06-23T11:55:46.164Z,13.13
2017-06-23T11:58:13.662Z,11.87
2017-06-23T12:00:41.158Z,13.53
2017-06-23T12:03:08.680Z,12.20
2017-06-23T12:05:36.158Z,12.40
2017-06-23T12:08:03.657Z,12.40
2017-06-23T12:10:31.148Z,11.70
2017-06-23T12:12:59.422Z,11.30
2017-06-23T12:15:27.685Z,11.43
2017-06-23T12:17:55.960Z,10.83
2017-06-23T12:20:24.214Z,12.10
2017-06-23T12:22:51.693Z,11.47
2017-06-23T12:25:19.187Z,10.37
2017-06-23T12:27:46.679Z,12.47
2017-06-23T12:30:14.168Z,11.73
2017-06-23T12:32:41.675Z,11.07
2017-06-23T12:35:09.147Z,10.70
2017-06-23T12:37:36.649Z,10.50
2017-06-23T12:40:04.913Z,12.00
2017-06-23T12:42:32.526Z,10.33
2017-06-23T12:45:00.027Z,11.57
2017-06-23T12:47:27.537Z,11.63
2017-06-23T12:49:55.033Z,9.77
2017-06-23T12:52:22.515Z,11.27
2017-06-23T12:54:50.065Z,10.47
2017-06-23T12:57:17.561Z,9.00
2017-06-23T12:59:45.037Z,10.50
2017-06-23T13:02:12.545Z,10.20
2017-06-23T13:04:40.040Z,10.67
2017-06-23T13:07:07.547Z,10.13
2017-06-23T13:09:35.125Z,9.40
2017-06-23T13:12:02.616Z,9.17
2017-06-23T13:14:30.091Z,9.30
2017-06-23T13:16:57.600Z,10.10
2017-06-23T13:19:25.092Z,10.13
2017-06-23T13:21:52.588Z,9.47
2017-06-23T13:24:20.069Z,8.80
2017-06-23T13:26:47.553Z,11.00
2017-06-23T13:29:15.840Z,8.73
2017-06-23T13:31:43.334Z,8.97
2017-06-23T13:34:10.837Z,9.90
2017-06-23T13:36:39.078Z,8.90
2017-06-23T13:39:06.581Z,8.30
2017-06-23T13:41:34.827Z,8.73
2017-06-23T13:44:02.305Z,9.70
2017-06-23T13:46:30.564Z,9.20
2017-06-23T13:48:58.052Z,8.87
2017-06-23T13:51:25.546Z,9.87
2017-06-23T13:53:53.035Z,8.10
2017-06-23T13:56:20.525Z,9.10
2017-06-23T13:58:48.029Z,7.90
2017-06-23T14:01:15.508Z,9.47
2017-06-23T14:03:43.004Z,9.60
2017-06-23T14:06:11.236Z,8.33
2017-06-23T14:08:38.733Z,7.93
2017-06-23T14:11:06.205Z,8.40
2017-06-23T14:13:33.700Z,7.53
2017-06-23T14:16:01.172Z,7.60
2017-06-23T14:18:28.680Z,8.33
2017-06-23T14:20:58.170Z,7.83
2017-06-23T14:23:26.403Z,8.37
2017-06-23T14:25:53.917Z,9.40
2017-06-23T14:28:21.397Z,8.70
2017-06-23T14:30:48.898Z,9.27
2017-06-23T14:33:16.377Z,9.37
2017-06-23T14:35:44.662Z,9.50
2017-06-23T14:38:12.138Z,8.50
2017-06-23T14:40:39.619Z,8.63
2017-06-23T14:43:07.100Z,8.30
2017-06-23T14:45:34.588Z,9.17
2017-06-23T14:48:02.848Z,10.53
2017-06-23T14:50:30.363Z,8.93
2017-06-23T14:52:57.848Z,8.27
2017-06-23T14:55:25.346Z,9.20
2017-06-23T14:57:52.852Z,8.50
2017-06-23T15:00:20.340Z,8.43
2017-06-23T15:02:48.611Z,9.67
2017-06-23T15:05:16.088Z,8.90
2017-06-23T15:07:44.351Z,8.17
2017-06-23T15:10:11.821Z,8.13
2017-06-23T15:12:40.080Z,8.07
2017-06-23T15:15:07.601Z,8.87
2017-06-23T15:17:35.504Z,9.10
2017-06-23T15:20:03.948Z,8.37
2017-06-23T15:22:31.425Z,7.47
2017-06-23T15:24:58.964Z,8.10
2017-06-23T15:27:26.444Z,9.30
2017-06-23T15:29:53.927Z,8.77
2017-06-23T15:32:22.206Z,9.63
2017-06-23T15:34:50.468Z,9.30
2017-06-23T15:37:17.944Z,9.17
2017-06-23T15:39:46.204Z,8.57
2017-06-23T15:42:15.976Z,9.93
2017-06-23T15:44:43.538Z,9.50
2017-06-23T15:47:11.008Z,9.37
2017-06-23T15:49:38.548Z,8.70
2017-06-23T15:52:06.077Z,8.90
2017-06-23T15:54:34.341Z,9.40
2017-06-23T15:57:02.587Z,9.93
2017-06-23T15:59:30.088Z,8.53
2017-06-23T16:01:58.345Z,8.70
2017-06-23T16:04:25.829Z,8.20
2017-06-23T16:06:54.060Z,8.43
2017-06-23T16:09:21.558Z,10.10
2017-06-23T16:11:49.813Z,9.30
2017-06-23T16:14:17.294Z,10.43
2017-06-23T16:16:44.809Z,9.93
2017-06-23T16:19:12.302Z,10.67
2017-06-23T16:21:40.576Z,9.10
2017-06-23T16:24:08.848Z,11.03
2017-06-23T16:26:37.099Z,10.07
2017-06-23T16:29:04.622Z,9.97
2017-06-23T16:31:32.090Z,9.37
2017-06-23T16:33:59.589Z,9.00
2017-06-23T16:36:27.081Z,9.20
2017-06-23T16:38:54.582Z,10.07
2017-06-23T16:41:22.081Z,9.43
2017-06-23T16:43:50.360Z,9.60
2017-06-23T16:46:18.606Z,11.00
2017-06-23T16:48:46.077Z,10.30
2017-06-23T16:51:13.576Z,12.07
2017-06-23T16:53:41.064Z,10.60
2017-06-23T16:56:08.580Z,10.43
2017-06-23T16:58:36.817Z,10.60
2017-06-23T17:01:04.325Z,11.33
2017-06-23T17:03:31.834Z,10.70
2017-06-23T17:05:59.325Z,10.00
2017-06-23T17:08:27.585Z,10.00
2017-06-23T17:10:55.074Z,10.07
2017-06-23T17:13:22.567Z,10.87
2017-06-23T17:15:50.069Z,10.87
2017-06-23T17:18:18.346Z,10.03
2017-06-23T17:20:46.594Z,11.20
2017-06-23T17:23:14.114Z,9.90
2017-06-23T17:25:41.584Z,9.97
2017-06-23T17:28:09.064Z,9.60
2017-06-23T17:30:36.576Z,10.20
2017-06-23T17:33:04.089Z,9.83
2017-06-23T17:35:31.570Z,10.07
2017-06-23T17:37:59.847Z,10.77
2017-06-23T17:40:28.105Z,9.97
2017-06-23T17:42:55.611Z,11.03
2017-06-23T17:45:23.105Z,10.00
2017-06-23T17:47:50.617Z,10.63
2017-06-23T17:50:18.104Z,10.03
2017-06-23T17:52:45.592Z,10.27
2017-06-23T17:55:13.091Z,10.73
2017-06-23T17:57:40.594Z,11.20
2017-06-23T18:00:08.158Z,11.70
2017-06-23T18:02:35.642Z,10.27
2017-06-23T18:05:03.136Z,9.30
2017-06-23T18:07:30.664Z,10.90
2017-06-23T18:09:58.144Z,9.97
2017-06-23T18:12:25.637Z,11.07
2017-06-23T18:14:53.138Z,11.00
2017-06-23T18:17:20.610Z,9.90
2017-06-23T18:19:48.866Z,9.80
2017-06-23T18:22:16.350Z,9.07
2017-06-23T18:24:44.656Z,9.90
2017-06-23T18:27:12.137Z,9.37
2017-06-23T18:29:39.633Z,9.73
2017-06-23T18:32:07.882Z,10.00
2017-06-23T18:34:35.368Z,10.40
2017-06-23T18:37:03.649Z,9.33
2017-06-23T18:39:31.900Z,10.07
2017-06-23T18:41:59.397Z,9.47
2017-06-23T18:44:26.931Z,10.33
2017-06-23T18:46:54.434Z,9.43
2017-06-23T18:49:21.934Z,9.57
2017-06-23T18:51:49.409Z,9.57
2017-06-23T18:54:17.726Z,10.30
2017-06-23T18:56:45.219Z,9.30
2017-06-23T18:59:12.704Z,9.53
2017-06-23T19:01:40.959Z,9.30
2017-06-23T19:04:08.448Z,9.07
2017-06-23T19:06:36.709Z,9.57
2017-06-23T19:09:04.965Z,9.50
2017-06-23T19:11:32.433Z,9.23
2017-06-23T19:13:59.933Z,9.70
2017-06-23T19:16:27.428Z,11.03
2017-06-23T19:18:55.728Z,9.50
2017-06-23T19:21:23.224Z,10.17
2017-06-23T19:23:50.779Z,9.60
2017-06-23T19:26:18.293Z,8.73
2017-06-23T19:28:45.780Z,9.97
2017-06-23T19:31:14.104Z,9.50
2017-06-23T19:33:41.570Z,7.93
2017-06-23T19:36:09.096Z,8.83
2017-06-23T19:38:37.350Z,8.93
2017-06-23T19:41:05.682Z,8.60
2017-06-23T19:43:33.214Z,9.03
2017-06-23T19:46:00.733Z,8.00
2017-06-23T19:48:28.209Z,7.80
2017-06-23T19:50:56.464Z,8.90
2017-06-23T19:53:23.949Z,7.53
2017-06-23T19:55:52.212Z,9.13
2017-06-23T19:58:20.526Z,8.60
2017-06-23T20:00:48.040Z,8.03
2017-06-23T20:03:15.545Z,8.03
2017-06-23T20:05:43.031Z,8.00
2017-06-23T20:08:10.548Z,7.50
2017-06-23T20:10:38.047Z,8.10
2017-06-23T20:13:05.520Z,8.67
2017-06-23T20:15:33.804Z,8.40
2017-06-23T20:18:01.297Z,8.20
2017-06-23T20:20:28.828Z,7.40
2017-06-23T20:22:56.332Z,7.40
2017-06-23T20:25:23.818Z,7.70
2017-06-23T20:27:51.308Z,8.30
2017-06-23T20:30:18.824Z,7.10
2017-06-23T20:32:46.288Z,8.00
2017-06-23T20:35:13.768Z,7.33
2017-06-23T20:37:41.300Z,7.53
2017-06-23T20:40:08.789Z,8.50
2017-06-23T20:42:36.274Z,8.03
2017-06-23T20:45:03.820Z,7.77
2017-06-23T20:47:32.083Z,7.17
2017-06-23T20:50:00.344Z,8.10
2017-06-23T20:52:27.862Z,6.60
2017-06-23T20:54:55.348Z,7.80
2017-06-23T20:57:22.855Z,8.27
2017-06-23T20:59:51.138Z,7.73
2017-06-23T21:02:18.634Z,8.53
2017-06-23T21:04:46.144Z,8.10
2017-06-23T21:07:14.408Z,7.90
2017-06-23T21:09:42.664Z,7.40
2017-06-23T21:12:10.960Z,8.90
2017-06-23T21:14:39.218Z,8.37
2017-06-23T21:17:06.694Z,8.10
2017-06-23T21:19:34.969Z,7.60
2017-06-23T21:22:03.247Z,9.03
2017-06-23T21:24:31.513Z,8.27
2017-06-23T21:26:58.990Z,7.90
2017-06-23T21:29:27.269Z,7.63
2017-06-23T21:31:55.553Z,7.80
2017-06-23T21:34:23.139Z,7.33
2017-06-23T21:36:50.649Z,9.10
2017-06-23T21:39:18.888Z,8.37
2017-06-23T21:41:53.363Z,7.67
2017-06-23T21:44:20.840Z,7.80
2017-06-23T21:46:48.332Z,7.90
2017-06-23T21:49:15.829Z,7.80
2017-06-23T21:51:44.111Z,8.27
2017-06-23T21:54:11.627Z,8.07
2017-06-23T21:56:39.109Z,7.43
2017-06-23T21:59:06.615Z,7.97
2017-06-23T22:01:34.107Z,7.10
2017-06-23T22:04:01.593Z,7.33
2017-06-23T22:06:29.869Z,7.57
2017-06-23T22:08:58.136Z,8.27
2017-06-23T22:11:25.642Z,8.13
2017-06-23T22:13:53.144Z,8.33
2017-06-23T22:16:20.713Z,7.20
2017-06-23T22:18:48.228Z,8.20
2017-06-23T22:21:15.721Z,8.83
2017-06-23T22:23:43.233Z,7.20
2017-06-23T22:26:10.740Z,7.60
2017-06-23T22:28:38.264Z,8.37
2017-06-23T22:31:05.724Z,7.97
2017-06-23T22:33:33.220Z,8.10
2017-06-23T22:36:00.697Z,7.83
2017-06-23T22:38:28.975Z,8.10
2017-06-23T22:40:57.224Z,9.30
2017-06-23T22:43:24.700Z,9.10
2017-06-23T22:45:52.960Z,8.63
2017-06-23T22:48:20.459Z,8.87
2017-06-23T22:50:47.952Z,8.90
2017-06-23T22:53:15.449Z,8.80
2017-06-23T22:55:43.700Z,8.97
2017-06-23T22:58:11.232Z,8.60
2017-06-23T23:00:39.004Z,8.20
2017-06-23T23:03:06.620Z,8.13
2017-06-23T23:05:34.925Z,8.20
2017-06-23T23:08:02.404Z,8.80
2017-06-23T23:10:29.905Z,8.40
2017-06-23T23:12:58.157Z,9.87
2017-06-23T23:15:25.640Z,8.70
2017-06-23T23:17:53.959Z,9.20
2017-06-23T23:20:21.449Z,8.73
2017-06-23T23:22:48.953Z,8.27
2017-06-23T23:25:16.437Z,9.90
2017-06-23T23:27:43.932Z,8.50
2017-06-23T23:30:11.420Z,9.33
2017-06-23T23:32:39.662Z,8.97
2017-06-23T23:35:07.156Z,8.87
2017-06-23T23:37:35.410Z,8.57
2017-06-23T23:40:02.884Z,8.80
2017-06-23T23:42:30.416Z,9.13
2017-06-23T23:44:57.896Z,8.03
2017-06-23T23:47:26.141Z,8.13
2017-06-23T23:49:53.656Z,8.70
2017-06-23T23:52:21.137Z,9.27
2017-06-23T23:54:48.645Z,8.87
2017-06-23T23:57:16.904Z,8.47
2017-06-23T23:59:44.408Z,9.37
